Joan Del Cuadrat — EA3925 — position and weather

sailwx.info

Track history (hours):
 
Tides and Currents Weather Stations Pressure Air Temp Water Temp Dewpoint Dewpoint Depression Visibility Wind Speed Wind Dir Waves Ship Positions

Joan Del Cuadrat

Last reported at 2018-May-24 13:39 UTC. Time now 2018-May-24 23:36 UTC.
Position N 41°13' E 001°44'.

Length 21 m; draft 2 m.

Type: Fishing. MMSI: 224095230.

Date/timePositionNaut miles runAvg speedWind from/ knotsBaromVisibWave heightAir tempDewpointWater temp
2018-May-24 13:39N 41°13' E 001°44'0 0.0
2018-May-24 13:29N 41°13' E 001°44'19 4.1
2018-May-24 09:00N 41°16' E 002°08'2 1.3
2018-May-24 07:29N 41°15' E 002°06'2 3.4
2018-May-24 07:00N 41°14' E 002°04'2 3.3
2018-May-24 06:29N 41°13' E 002°02'9 6.9
2018-May-24 05:09N 41°12' E 001°50'210.7
2018-May-24 05:00N 41°12' E 001°48'3 6.1
2018-May-24 04:29N 41°13' E 001°44'0 0.0
2018-May-24 04:00N 41°13' E 001°44'0 0.0
2018-May-22 14:02N 41°13' E 001°44'0 0.2
2018-May-22 14:00N 41°13' E 001°44'0 0.0
2018-May-22 13:30N 41°13' E 001°44'0 0.0
2018-May-22 13:00N 41°13' E 001°44'3 6.1
2018-May-22 12:30N 41°12' E 001°48'10 6.4
2018-May-22 10:55N 41°12' E 002°02'1 3.4
2018-May-22 10:30N 41°13' E 002°03'2 3.3
2018-May-22 10:00N 41°14' E 002°05'2 3.3
2018-May-22 09:30N 41°15' E 002°07'2 3.3
2018-May-22 09:00N 41°16' E 002°08'4 1.8
2018-May-22 07:02N 41°14' E 002°05'0 3.5
2018-May-22 07:00N 41°14' E 002°04'2 3.3
2018-May-22 06:22N 41°13' E 002°02'9 7.5
2018-May-22 05:06N 41°12' E 001°50'111.0
2018-May-22 05:00N 41°12' E 001°48'3 6.2
2018-May-22 04:30N 41°13' E 001°44'0 0.0
2018-May-22 04:00N 41°13' E 001°44'0 0.0
2018-May-21 13:46N 41°13' E 001°44'0 0.0
2018-May-21 13:30N 41°13' E 001°44'0 0.0
2018-May-21 13:00N 41°13' E 001°44'2 4.0
2018-May-21 12:30N 41°12' E 001°47'11 6.9
2018-May-21 10:52N 41°12' E 002°02'1 3.3
2018-May-21 10:25N 41°13' E 002°03'1 3.3
2018-May-21 10:00N 41°14' E 002°05'2 3.2
2018-May-21 09:29N 41°15' E 002°06'2 3.2
2018-May-21 09:00N 41°16' E 002°08'3 1.6
2018-May-21 07:10N 41°14' E 002°05'1 3.3
2018-May-21 07:00N 41°14' E 002°04'2 3.2
2018-May-21 06:30N 41°13' E 002°02'10 6.9
2018-May-21 05:07N 41°12' E 001°50'110.9
2018-May-21 05:00N 41°12' E 001°48'3 6.2
2018-May-21 04:30N 41°13' E 001°44'0 0.0
2018-May-21 04:00N 41°13' E 001°44'  
2018-May-17 13:42N 41°13' E 001°44'0 0.0
2018-May-17 13:30N 41°13' E 001°44'0 0.0
2018-May-17 13:00N 41°13' E 001°44'0 0.0
2018-May-17 12:30N 41°13' E 001°44'2 4.9
2018-May-17 12:00N 41°11' E 001°42'3 2.7
2018-May-17 10:48N 41°08' E 001°42'1 3.1
2018-May-17 10:30N 41°08' E 001°43'2 3.2
2018-May-17 09:59N 41°08' E 001°45'2 3.3
2018-May-17 09:30N 41°08' E 001°47'2 3.4
2018-May-17 09:00N 41°08' E 001°50'3 1.1
2018-May-17 06:32N 41°08' E 001°46'0 3.2
2018-May-17 06:30N 41°08' E 001°46'2 3.2
2018-May-17 06:00N 41°08' E 001°44'2 3.1
2018-May-17 05:28N 41°08' E 001°41'2 3.2
2018-May-17 04:59N 41°10' E 001°41'4 7.9
2018-May-17 04:30N 41°13' E 001°44'0 0.0
2018-May-17 04:00N 41°13' E 001°44'0 0.0
2018-May-16 14:09N 41°13' E 001°44'0 0.0
2018-May-16 14:00N 41°13' E 001°44'0 0.0
2018-May-16 13:30N 41°13' E 001°44'0 0.0
2018-May-16 13:00N 41°13' E 001°44'4 7.7
2018-May-16 12:30N 41°12' E 001°49'10 6.1
2018-May-16 10:53N 41°12' E 002°02'1 3.3
2018-May-16 10:30N 41°13' E 002°04'2 3.3
2018-May-16 10:00N 41°14' E 002°05'2 3.2
2018-May-16 09:30N 41°15' E 002°07'2 3.1
2018-May-16 09:00N 41°16' E 002°09'3 1.7
2018-May-16 07:19N 41°15' E 002°05'1 3.3
2018-May-16 07:00N 41°14' E 002°04'2 3.2
2018-May-16 06:30N 41°13' E 002°02'9 6.9
2018-May-16 05:09N 41°12' E 001°50'211.1
2018-May-16 05:00N 41°12' E 001°48'3 5.9
2018-May-16 04:30N 41°13' E 001°44'0 0.3
2018-May-16 04:00N 41°13' E 001°44'0 0.0
2018-May-15 13:54N 41°13' E 001°44'0 0.0
2018-May-15 13:31N 41°13' E 001°44'0 0.3
2018-May-15 13:01N 41°13' E 001°44'4 8.5
2018-May-15 12:31N 41°12' E 001°50'9 6.1
2018-May-15 11:03N 41°12' E 002°01'2 3.2
2018-May-15 10:34N 41°13' E 002°03'0 3.2
2018-May-15 10:30N 41°13' E 002°03'2 3.1
2018-May-15 10:00N 41°14' E 002°05'2 3.1
2018-May-15 09:30N 41°15' E 002°07'2 3.1
2018-May-15 08:59N 41°16' E 002°08'3 1.8
2018-May-15 07:13N 41°14' E 002°05'1 3.2
2018-May-15 07:00N 41°14' E 002°04'2 3.2
2018-May-15 06:26N 41°13' E 002°02'11 7.4
2018-May-15 05:00N 41°12' E 001°48'3 5.9
2018-May-15 04:29N 41°13' E 001°44'0 0.0
2018-May-15 03:56N 41°13' E 001°44'0 0.0
2018-May-14 14:05N 41°13' E 001°44'0 0.0
2018-May-14 14:00N 41°13' E 001°44'  
Track history (hours):
 
Tides and Currents Weather Stations Pressure Air Temp Water Temp Dewpoint Dewpoint Depression Visibility Wind Speed Wind Dir Waves Ship Positions

Joan Del Cuadrat

Last reported at 2018-May-24 13:39 UTC. Time now 2018-May-24 23:36 UTC.
Position N 41°13' E 001°44'.

Length 21 m; draft 2 m.

Type: Fishing. MMSI: 224095230.

Date/timePositionNaut miles runAvg speedWind from/ knotsBaromVisibWave heightAir tempDewpointWater temp
2018-May-24 13:39N 41°13' E 001°44'0 0.0
2018-May-24 13:29N 41°13' E 001°44'19 4.1
2018-May-24 09:00N 41°16' E 002°08'2 1.3
2018-May-24 07:29N 41°15' E 002°06'2 3.4
2018-May-24 07:00N 41°14' E 002°04'2 3.3
2018-May-24 06:29N 41°13' E 002°02'9 6.9
2018-May-24 05:09N 41°12' E 001°50'210.7
2018-May-24 05:00N 41°12' E 001°48'3 6.1
2018-May-24 04:29N 41°13' E 001°44'0 0.0
2018-May-24 04:00N 41°13' E 001°44'0 0.0
2018-May-22 14:02N 41°13' E 001°44'0 0.2
2018-May-22 14:00N 41°13' E 001°44'0 0.0
2018-May-22 13:30N 41°13' E 001°44'0 0.0
2018-May-22 13:00N 41°13' E 001°44'3 6.1
2018-May-22 12:30N 41°12' E 001°48'10 6.4
2018-May-22 10:55N 41°12' E 002°02'1 3.4
2018-May-22 10:30N 41°13' E 002°03'2 3.3
2018-May-22 10:00N 41°14' E 002°05'2 3.3
2018-May-22 09:30N 41°15' E 002°07'2 3.3
2018-May-22 09:00N 41°16' E 002°08'4 1.8
2018-May-22 07:02N 41°14' E 002°05'0 3.5
2018-May-22 07:00N 41°14' E 002°04'2 3.3
2018-May-22 06:22N 41°13' E 002°02'9 7.5
2018-May-22 05:06N 41°12' E 001°50'111.0
2018-May-22 05:00N 41°12' E 001°48'3 6.2
2018-May-22 04:30N 41°13' E 001°44'0 0.0
2018-May-22 04:00N 41°13' E 001°44'0 0.0
2018-May-21 13:46N 41°13' E 001°44'0 0.0
2018-May-21 13:30N 41°13' E 001°44'0 0.0
2018-May-21 13:00N 41°13' E 001°44'2 4.0
2018-May-21 12:30N 41°12' E 001°47'11 6.9
2018-May-21 10:52N 41°12' E 002°02'1 3.3
2018-May-21 10:25N 41°13' E 002°03'1 3.3
2018-May-21 10:00N 41°14' E 002°05'2 3.2
2018-May-21 09:29N 41°15' E 002°06'2 3.2
2018-May-21 09:00N 41°16' E 002°08'3 1.6
2018-May-21 07:10N 41°14' E 002°05'1 3.3
2018-May-21 07:00N 41°14' E 002°04'2 3.2
2018-May-21 06:30N 41°13' E 002°02'10 6.9
2018-May-21 05:07N 41°12' E 001°50'110.9
2018-May-21 05:00N 41°12' E 001°48'3 6.2
2018-May-21 04:30N 41°13' E 001°44'0 0.0
2018-May-21 04:00N 41°13' E 001°44'  
2018-May-17 13:42N 41°13' E 001°44'0 0.0
2018-May-17 13:30N 41°13' E 001°44'0 0.0
2018-May-17 13:00N 41°13' E 001°44'0 0.0
2018-May-17 12:30N 41°13' E 001°44'2 4.9
2018-May-17 12:00N 41°11' E 001°42'3 2.7
2018-May-17 10:48N 41°08' E 001°42'1 3.1
2018-May-17 10:30N 41°08' E 001°43'2 3.2
2018-May-17 09:59N 41°08' E 001°45'2 3.3
2018-May-17 09:30N 41°08' E 001°47'2 3.4
2018-May-17 09:00N 41°08' E 001°50'3 1.1
2018-May-17 06:32N 41°08' E 001°46'0 3.2
2018-May-17 06:30N 41°08' E 001°46'2 3.2
2018-May-17 06:00N 41°08' E 001°44'2 3.1
2018-May-17 05:28N 41°08' E 001°41'2 3.2
2018-May-17 04:59N 41°10' E 001°41'4 7.9
2018-May-17 04:30N 41°13' E 001°44'0 0.0
2018-May-17 04:00N 41°13' E 001°44'0 0.0
2018-May-16 14:09N 41°13' E 001°44'0 0.0
2018-May-16 14:00N 41°13' E 001°44'0 0.0
2018-May-16 13:30N 41°13' E 001°44'0 0.0
2018-May-16 13:00N 41°13' E 001°44'4 7.7
2018-May-16 12:30N 41°12' E 001°49'10 6.1
2018-May-16 10:53N 41°12' E 002°02'1 3.3
2018-May-16 10:30N 41°13' E 002°04'2 3.3
2018-May-16 10:00N 41°14' E 002°05'2 3.2
2018-May-16 09:30N 41°15' E 002°07'2 3.1
2018-May-16 09:00N 41°16' E 002°09'3 1.7
2018-May-16 07:19N 41°15' E 002°05'1 3.3
2018-May-16 07:00N 41°14' E 002°04'2 3.2
2018-May-16 06:30N 41°13' E 002°02'9 6.9
2018-May-16 05:09N 41°12' E 001°50'211.1
2018-May-16 05:00N 41°12' E 001°48'3 5.9
2018-May-16 04:30N 41°13' E 001°44'0 0.3
2018-May-16 04:00N 41°13' E 001°44'0 0.0
2018-May-15 13:54N 41°13' E 001°44'0 0.0
2018-May-15 13:31N 41°13' E 001°44'0 0.3
2018-May-15 13:01N 41°13' E 001°44'4 8.5
2018-May-15 12:31N 41°12' E 001°50'9 6.1
2018-May-15 11:03N 41°12' E 002°01'2 3.2
2018-May-15 10:34N 41°13' E 002°03'0 3.2
2018-May-15 10:30N 41°13' E 002°03'2 3.1
2018-May-15 10:00N 41°14' E 002°05'2 3.1
2018-May-15 09:30N 41°15' E 002°07'2 3.1
2018-May-15 08:59N 41°16' E 002°08'3 1.8
2018-May-15 07:13N 41°14' E 002°05'1 3.2
2018-May-15 07:00N 41°14' E 002°04'2 3.2
2018-May-15 06:26N 41°13' E 002°02'11 7.4
2018-May-15 05:00N 41°12' E 001°48'3 5.9
2018-May-15 04:29N 41°13' E 001°44'0 0.0
2018-May-15 03:56N 41°13' E 001°44'0 0.0
2018-May-14 14:05N 41°13' E 001°44'0 0.0
2018-May-14 14:00N 41°13' E 001°44'  

Dump ship's entire track history